sensor_id;sensor_type;location;lat;lon;timestamp;temperature;humidity
47825;DHT22;33589;48.242;14.676;2023-05-29T00:01:33;20.30;55.20
47825;DHT22;33589;48.242;14.676;2023-05-29T00:03:59;20.30;55.50
47825;DHT22;33589;48.242;14.676;2023-05-29T00:06:25;20.20;55.70
47825;DHT22;33589;48.242;14.676;2023-05-29T00:08:50;20.20;55.90
47825;DHT22;33589;48.242;14.676;2023-05-29T00:11:16;20.10;55.70
47825;DHT22;33589;48.242;14.676;2023-05-29T00:13:42;20.10;55.70
47825;DHT22;33589;48.242;14.676;2023-05-29T00:16:07;20.10;55.90
47825;DHT22;33589;48.242;14.676;2023-05-29T00:18:35;20.10;55.80
47825;DHT22;33589;48.242;14.676;2023-05-29T00:21:01;20.00;56.50
47825;DHT22;33589;48.242;14.676;2023-05-29T00:23:27;20.00;56.20
47825;DHT22;33589;48.242;14.676;2023-05-29T00:25:53;20.00;56.70
47825;DHT22;33589;48.242;14.676;2023-05-29T00:28:18;20.00;56.90
47825;DHT22;33589;48.242;14.676;2023-05-29T00:30:44;19.90;56.60
47825;DHT22;33589;48.242;14.676;2023-05-29T00:33:09;20.00;56.60
47825;DHT22;33589;48.242;14.676;2023-05-29T00:35:35;19.90;56.60
47825;DHT22;33589;48.242;14.676;2023-05-29T00:38:01;19.90;57.00
47825;DHT22;33589;48.242;14.676;2023-05-29T00:40:27;19.90;57.10
47825;DHT22;33589;48.242;14.676;2023-05-29T00:42:52;20.00;57.10
47825;DHT22;33589;48.242;14.676;2023-05-29T00:45:18;19.80;57.10
47825;DHT22;33589;48.242;14.676;2023-05-29T00:47:44;19.70;57.40
47825;DHT22;33589;48.242;14.676;2023-05-29T00:50:11;19.70;57.60
47825;DHT22;33589;48.242;14.676;2023-05-29T00:52:43;19.70;57.70
47825;DHT22;33589;48.242;14.676;2023-05-29T00:55:10;19.70;57.70
47825;DHT22;33589;48.242;14.676;2023-05-29T00:57:36;19.70;57.80
47825;DHT22;33589;48.242;14.676;2023-05-29T01:00:05;19.60;57.80
47825;DHT22;33589;48.242;14.676;2023-05-29T01:02:36;19.60;58.10
47825;DHT22;33589;48.242;14.676;2023-05-29T01:05:03;19.60;57.60
47825;DHT22;33589;48.242;14.676;2023-05-29T01:07:29;19.50;58.00
47825;DHT22;33589;48.242;14.676;2023-05-29T01:09:54;19.50;58.10
47825;DHT22;33589;48.242;14.676;2023-05-29T01:22:58;19.40;59.30
47825;DHT22;33589;48.242;14.676;2023-05-29T01:27:54;19.30;58.70
47825;DHT22;33589;48.242;14.676;2023-05-29T01:30:22;19.30;58.60
47825;DHT22;33589;48.242;14.676;2023-05-29T01:32:50;19.30;58.90
47825;DHT22;33589;48.242;14.676;2023-05-29T01:35:16;19.30;58.90
47825;DHT22;33589;48.242;14.676;2023-05-29T01:37:42;19.30;58.90
47825;DHT22;33589;48.242;14.676;2023-05-29T01:40:08;19.20;58.80
47825;DHT22;33589;48.242;14.676;2023-05-29T01:42:34;19.20;58.60
47825;DHT22;33589;48.242;14.676;2023-05-29T01:45:00;19.20;58.80
47825;DHT22;33589;48.242;14.676;2023-05-29T01:47:27;19.10;59.00
47825;DHT22;33589;48.242;14.676;2023-05-29T01:49:53;19.20;59.10
47825;DHT22;33589;48.242;14.676;2023-05-29T01:52:20;19.20;58.90
47825;DHT22;33589;48.242;14.676;2023-05-29T01:54:46;19.10;59.00
47825;DHT22;33589;48.242;14.676;2023-05-29T01:57:12;19.10;58.60
47825;DHT22;33589;48.242;14.676;2023-05-29T01:59:38;19.10;58.80
47825;DHT22;33589;48.242;14.676;2023-05-29T02:02:10;19.00;58.50
47825;DHT22;33589;48.242;14.676;2023-05-29T02:04:37;19.00;59.40
47825;DHT22;33589;48.242;14.676;2023-05-29T02:07:03;19.00;58.80
47825;DHT22;33589;48.242;14.676;2023-05-29T02:09:29;19.00;58.70
47825;DHT22;33589;48.242;14.676;2023-05-29T02:11:56;19.00;58.80
47825;DHT22;33589;48.242;14.676;2023-05-29T02:14:21;18.90;58.60
47825;DHT22;33589;48.242;14.676;2023-05-29T02:16:51;18.90;58.70
47825;DHT22;33589;48.242;14.676;2023-05-29T02:19:18;18.90;58.50
47825;DHT22;33589;48.242;14.676;2023-05-29T02:21:44;19.00;58.60
47825;DHT22;33589;48.242;14.676;2023-05-29T02:24:12;18.90;58.50
47825;DHT22;33589;48.242;14.676;2023-05-29T02:26:39;18.80;58.60
47825;DHT22;33589;48.242;14.676;2023-05-29T02:29:05;18.80;58.70
47825;DHT22;33589;48.242;14.676;2023-05-29T02:31:31;18.80;58.60
47825;DHT22;33589;48.242;14.676;2023-05-29T02:33:57;18.80;58.80
47825;DHT22;33589;48.242;14.676;2023-05-29T02:36:22;18.80;58.60
47825;DHT22;33589;48.242;14.676;2023-05-29T02:38:50;18.80;58.70
47825;DHT22;33589;48.242;14.676;2023-05-29T02:41:16;18.70;58.80
47825;DHT22;33589;48.242;14.676;2023-05-29T02:43:42;18.70;59.00
47825;DHT22;33589;48.242;14.676;2023-05-29T02:46:08;18.70;59.10
47825;DHT22;33589;48.242;14.676;2023-05-29T02:48:33;18.70;59.00
47825;DHT22;33589;48.242;14.676;2023-05-29T02:50:59;18.60;59.60
47825;DHT22;33589;48.242;14.676;2023-05-29T02:53:25;18.60;58.90
47825;DHT22;33589;48.242;14.676;2023-05-29T02:55:51;18.60;59.00
47825;DHT22;33589;48.242;14.676;2023-05-29T02:58:16;18.60;59.10
47825;DHT22;33589;48.242;14.676;2023-05-29T03:00:42;18.50;58.80
47825;DHT22;33589;48.242;14.676;2023-05-29T03:03:08;18.50;58.90
47825;DHT22;33589;48.242;14.676;2023-05-29T03:05:38;18.50;58.90
47825;DHT22;33589;48.242;14.676;2023-05-29T03:08:03;18.40;59.60
47825;DHT22;33589;48.242;14.676;2023-05-29T03:10:29;18.40;59.20
47825;DHT22;33589;48.242;14.676;2023-05-29T03:12:55;18.30;59.10
47825;DHT22;33589;48.242;14.676;2023-05-29T03:15:21;18.30;59.10
47825;DHT22;33589;48.242;14.676;2023-05-29T03:17:47;18.30;59.20
47825;DHT22;33589;48.242;14.676;2023-05-29T03:20:16;18.30;58.80
47825;DHT22;33589;48.242;14.676;2023-05-29T03:22:41;18.30;58.60
47825;DHT22;33589;48.242;14.676;2023-05-29T03:25:08;18.30;58.80
47825;DHT22;33589;48.242;14.676;2023-05-29T03:27:34;18.30;58.60
47825;DHT22;33589;48.242;14.676;2023-05-29T03:30:08;18.30;58.20
47825;DHT22;33589;48.242;14.676;2023-05-29T03:32:35;18.40;58.10
47825;DHT22;33589;48.242;14.676;2023-05-29T03:35:01;18.30;57.80
47825;DHT22;33589;48.242;14.676;2023-05-29T03:37:29;18.30;58.00
47825;DHT22;33589;48.242;14.676;2023-05-29T03:39:55;18.30;58.10
47825;DHT22;33589;48.242;14.676;2023-05-29T03:42:21;18.30;58.40
47825;DHT22;33589;48.242;14.676;2023-05-29T03:44:48;18.30;58.40
47825;DHT22;33589;48.242;14.676;2023-05-29T03:47:15;18.30;58.40
47825;DHT22;33589;48.242;14.676;2023-05-29T03:49:40;18.30;59.20
47825;DHT22;33589;48.242;14.676;2023-05-29T03:52:06;18.20;58.50
47825;DHT22;33589;48.242;14.676;2023-05-29T03:54:32;18.20;58.80
47825;DHT22;33589;48.242;14.676;2023-05-29T03:57:00;18.20;58.40
47825;DHT22;33589;48.242;14.676;2023-05-29T03:59:27;18.20;58.50
47825;DHT22;33589;48.242;14.676;2023-05-29T04:01:52;18.20;58.60
47825;DHT22;33589;48.242;14.676;2023-05-29T04:04:19;18.20;58.60
47825;DHT22;33589;48.242;14.676;2023-05-29T04:06:45;18.10;58.80
47825;DHT22;33589;48.242;14.676;2023-05-29T04:09:11;18.10;59.10
47825;DHT22;33589;48.242;14.676;2023-05-29T04:11:36;18.10;59.10
47825;DHT22;33589;48.242;14.676;2023-05-29T04:14:04;18.10;59.00
47825;DHT22;33589;48.242;14.676;2023-05-29T04:16:29;18.00;58.80
47825;DHT22;33589;48.242;14.676;2023-05-29T04:18:55;18.10;58.70
47825;DHT22;33589;48.242;14.676;2023-05-29T04:21:24;18.10;58.60
47825;DHT22;33589;48.242;14.676;2023-05-29T04:23:49;18.10;58.50
47825;DHT22;33589;48.242;14.676;2023-05-29T04:26:15;18.10;58.40
47825;DHT22;33589;48.242;14.676;2023-05-29T04:28:41;18.10;58.50
47825;DHT22;33589;48.242;14.676;2023-05-29T04:31:08;18.00;58.60
47825;DHT22;33589;48.242;14.676;2023-05-29T04:33:35;18.10;58.60
47825;DHT22;33589;48.242;14.676;2023-05-29T04:36:03;18.10;58.60
47825;DHT22;33589;48.242;14.676;2023-05-29T04:38:29;18.20;58.40
47825;DHT22;33589;48.242;14.676;2023-05-29T04:40:56;18.20;58.40
47825;DHT22;33589;48.242;14.676;2023-05-29T04:43:27;18.20;58.00
47825;DHT22;33589;48.242;14.676;2023-05-29T04:45:59;18.30;58.00
47825;DHT22;33589;48.242;14.676;2023-05-29T04:48:25;18.30;58.50
47825;DHT22;33589;48.242;14.676;2023-05-29T04:50:52;18.30;58.20
47825;DHT22;33589;48.242;14.676;2023-05-29T04:53:18;18.30;58.10
47825;DHT22;33589;48.242;14.676;2023-05-29T04:55:43;18.30;58.20
47825;DHT22;33589;48.242;14.676;2023-05-29T04:58:09;18.30;58.40
47825;DHT22;33589;48.242;14.676;2023-05-29T05:00:37;18.30;58.60
47825;DHT22;33589;48.242;14.676;2023-05-29T05:03:03;18.30;58.70
47825;DHT22;33589;48.242;14.676;2023-05-29T05:05:29;18.30;58.70
47825;DHT22;33589;48.242;14.676;2023-05-29T05:07:57;18.20;59.40
47825;DHT22;33589;48.242;14.676;2023-05-29T05:10:23;18.20;59.30
47825;DHT22;33589;48.242;14.676;2023-05-29T05:12:49;18.30;59.80
47825;DHT22;33589;48.242;14.676;2023-05-29T05:15:17;18.50;59.10
47825;DHT22;33589;48.242;14.676;2023-05-29T05:17:43;18.50;59.10
47825;DHT22;33589;48.242;14.676;2023-05-29T05:20:09;18.60;59.20
47825;DHT22;33589;48.242;14.676;2023-05-29T05:22:37;18.60;59.10
47825;DHT22;33589;48.242;14.676;2023-05-29T05:25:04;18.80;59.40
47825;DHT22;33589;48.242;14.676;2023-05-29T05:27:30;18.80;59.20
47825;DHT22;33589;48.242;14.676;2023-05-29T05:29:56;19.00;59.30
47825;DHT22;33589;48.242;14.676;2023-05-29T05:32:22;19.10;59.20
47825;DHT22;33589;48.242;14.676;2023-05-29T05:34:55;19.20;58.80
47825;DHT22;33589;48.242;14.676;2023-05-29T05:37:21;19.40;58.60
47825;DHT22;33589;48.242;14.676;2023-05-29T05:39:49;19.50;59.00
47825;DHT22;33589;48.242;14.676;2023-05-29T05:42:16;19.60;58.40
47825;DHT22;33589;48.242;14.676;2023-05-29T05:44:49;19.70;58.20
47825;DHT22;33589;48.242;14.676;2023-05-29T05:47:15;19.70;57.60
47825;DHT22;33589;48.242;14.676;2023-05-29T05:49:41;19.90;58.50
47825;DHT22;33589;48.242;14.676;2023-05-29T05:52:09;20.00;58.00
47825;DHT22;33589;48.242;14.676;2023-05-29T05:54:34;20.30;57.80
47825;DHT22;33589;48.242;14.676;2023-05-29T05:57:00;20.40;58.20
47825;DHT22;33589;48.242;14.676;2023-05-29T05:59:26;20.60;57.30
47825;DHT22;33589;48.242;14.676;2023-05-29T06:01:52;20.70;56.80
47825;DHT22;33589;48.242;14.676;2023-05-29T06:04:18;20.80;56.60
47825;DHT22;33589;48.242;14.676;2023-05-29T06:06:44;20.80;56.90
47825;DHT22;33589;48.242;14.676;2023-05-29T06:09:10;20.90;57.10
47825;DHT22;33589;48.242;14.676;2023-05-29T06:11:37;21.00;56.90
47825;DHT22;33589;48.242;14.676;2023-05-29T06:14:04;21.20;56.50
47825;DHT22;33589;48.242;14.676;2023-05-29T06:16:29;21.20;56.50
47825;DHT22;33589;48.242;14.676;2023-05-29T06:18:56;21.30;56.30
47825;DHT22;33589;48.242;14.676;2023-05-29T06:21:22;21.30;56.10
47825;DHT22;33589;48.242;14.676;2023-05-29T06:23:53;21.40;56.10
47825;DHT22;33589;48.242;14.676;2023-05-29T06:26:19;21.50;56.10
47825;DHT22;33589;48.242;14.676;2023-05-29T06:28:47;21.60;55.60
47825;DHT22;33589;48.242;14.676;2023-05-29T06:31:13;21.70;55.70
47825;DHT22;33589;48.242;14.676;2023-05-29T06:33:38;21.80;55.50
47825;DHT22;33589;48.242;14.676;2023-05-29T06:36:05;21.80;54.70
47825;DHT22;33589;48.242;14.676;2023-05-29T06:38:32;21.90;54.20
47825;DHT22;33589;48.242;14.676;2023-05-29T06:40:58;21.90;54.30
47825;DHT22;33589;48.242;14.676;2023-05-29T06:43:23;22.00;53.70
47825;DHT22;33589;48.242;14.676;2023-05-29T06:45:55;22.10;53.80
47825;DHT22;33589;48.242;14.676;2023-05-29T06:48:21;22.20;54.00
47825;DHT22;33589;48.242;14.676;2023-05-29T06:50:48;22.20;54.50
47825;DHT22;33589;48.242;14.676;2023-05-29T06:53:42;22.40;53.70
47825;DHT22;33589;48.242;14.676;2023-05-29T06:56:11;22.40;52.90
47825;DHT22;33589;48.242;14.676;2023-05-29T06:58:37;22.50;52.70
47825;DHT22;33589;48.242;14.676;2023-05-29T07:01:03;22.50;52.10
47825;DHT22;33589;48.242;14.676;2023-05-29T07:03:32;22.60;51.90
47825;DHT22;33589;48.242;14.676;2023-05-29T07:05:57;22.60;51.70
47825;DHT22;33589;48.242;14.676;2023-05-29T07:08:24;22.80;51.00
47825;DHT22;33589;48.242;14.676;2023-05-29T07:10:51;22.80;50.50
47825;DHT22;33589;48.242;14.676;2023-05-29T07:13:19;22.80;50.30
47825;DHT22;33589;48.242;14.676;2023-05-29T07:15:45;22.90;50.50
47825;DHT22;33589;48.242;14.676;2023-05-29T07:18:12;22.90;50.00
47825;DHT22;33589;48.242;14.676;2023-05-29T07:20:38;23.00;50.10
47825;DHT22;33589;48.242;14.676;2023-05-29T07:23:04;23.20;50.00
47825;DHT22;33589;48.242;14.676;2023-05-29T07:25:31;23.30;50.20
47825;DHT22;33589;48.242;14.676;2023-05-29T07:27:57;23.60;50.40
47825;DHT22;33589;48.242;14.676;2023-05-29T07:30:23;23.80;50.70
47825;DHT22;33589;48.242;14.676;2023-05-29T07:32:50;24.00;50.20
47825;DHT22;33589;48.242;14.676;2023-05-29T07:35:16;24.10;49.00
47825;DHT22;33589;48.242;14.676;2023-05-29T07:37:41;24.30;48.30
47825;DHT22;33589;48.242;14.676;2023-05-29T07:40:09;24.40;48.30
47825;DHT22;33589;48.242;14.676;2023-05-29T07:43:04;24.60;47.10
47825;DHT22;33589;48.242;14.676;2023-05-29T07:45:45;24.70;47.20
47825;DHT22;33589;48.242;14.676;2023-05-29T07:48:11;25.00;47.70
47825;DHT22;33589;48.242;14.676;2023-05-29T07:50:37;25.40;47.20
47825;DHT22;33589;48.242;14.676;2023-05-29T07:53:03;25.80;45.60
47825;DHT22;33589;48.242;14.676;2023-05-29T07:55:29;26.30;45.50
47825;DHT22;33589;48.242;14.676;2023-05-29T07:57:55;26.60;45.90
47825;DHT22;33589;48.242;14.676;2023-05-29T08:00:21;27.10;44.70
47825;DHT22;33589;48.242;14.676;2023-05-29T08:02:47;27.10;43.30
47825;DHT22;33589;48.242;14.676;2023-05-29T08:05:41;27.20;43.10
47825;DHT22;33589;48.242;14.676;2023-05-29T08:08:11;27.30;42.80
47825;DHT22;33589;48.242;14.676;2023-05-29T08:10:40;27.60;42.00
47825;DHT22;33589;48.242;14.676;2023-05-29T08:13:05;28.10;40.70
47825;DHT22;33589;48.242;14.676;2023-05-29T08:15:33;28.70;38.70
47825;DHT22;33589;48.242;14.676;2023-05-29T08:17:59;29.50;38.10
47825;DHT22;33589;48.242;14.676;2023-05-29T08:20:25;30.60;36.40
47825;DHT22;33589;48.242;14.676;2023-05-29T08:22:51;31.70;34.30
47825;DHT22;33589;48.242;14.676;2023-05-29T08:25:17;33.10;32.50
47825;DHT22;33589;48.242;14.676;2023-05-29T08:27:42;34.00;30.80
47825;DHT22;33589;48.242;14.676;2023-05-29T08:30:08;34.70;30.00
47825;DHT22;33589;48.242;14.676;2023-05-29T08:32:34;35.20;29.90
47825;DHT22;33589;48.242;14.676;2023-05-29T08:35:00;35.80;29.40
47825;DHT22;33589;48.242;14.676;2023-05-29T08:37:26;35.90;29.30
47825;DHT22;33589;48.242;14.676;2023-05-29T08:39:52;35.50;29.70
47825;DHT22;33589;48.242;14.676;2023-05-29T08:42:36;34.90;30.50
47825;DHT22;33589;48.242;14.676;2023-05-29T08:45:06;33.20;33.20
47825;DHT22;33589;48.242;14.676;2023-05-29T08:47:34;31.30;35.00
47825;DHT22;33589;48.242;14.676;2023-05-29T08:50:01;29.30;38.40
47825;DHT22;33589;48.242;14.676;2023-05-29T08:52:29;27.80;41.10
47825;DHT22;33589;48.242;14.676;2023-05-29T08:54:56;27.00;42.20
47825;DHT22;33589;48.242;14.676;2023-05-29T08:57:22;26.50;42.70
47825;DHT22;33589;48.242;14.676;2023-05-29T08:59:51;26.20;42.80
47825;DHT22;33589;48.242;14.676;2023-05-29T09:02:17;26.00;42.50
47825;DHT22;33589;48.242;14.676;2023-05-29T09:04:43;25.80;42.90
47825;DHT22;33589;48.242;14.676;2023-05-29T09:07:18;25.60;43.20
47825;DHT22;33589;48.242;14.676;2023-05-29T09:09:45;25.70;42.80
47825;DHT22;33589;48.242;14.676;2023-05-29T09:12:11;25.70;42.80
47825;DHT22;33589;48.242;14.676;2023-05-29T09:14:38;25.70;42.90
47825;DHT22;33589;48.242;14.676;2023-05-29T09:17:06;25.60;43.40
47825;DHT22;33589;48.242;14.676;2023-05-29T09:19:33;25.60;43.00
47825;DHT22;33589;48.242;14.676;2023-05-29T09:22:12;25.50;42.90
47825;DHT22;33589;48.242;14.676;2023-05-29T09:24:42;25.50;42.70
47825;DHT22;33589;48.242;14.676;2023-05-29T09:27:09;25.40;42.60
47825;DHT22;33589;48.242;14.676;2023-05-29T09:29:46;25.40;42.60
47825;DHT22;33589;48.242;14.676;2023-05-29T09:32:17;25.40;42.60
47825;DHT22;33589;48.242;14.676;2023-05-29T09:34:43;25.30;42.70
47825;DHT22;33589;48.242;14.676;2023-05-29T09:37:10;25.30;43.00
47825;DHT22;33589;48.242;14.676;2023-05-29T09:39:50;25.30;43.10
47825;DHT22;33589;48.242;14.676;2023-05-29T09:42:19;25.40;42.70
47825;DHT22;33589;48.242;14.676;2023-05-29T09:44:49;25.40;42.90
47825;DHT22;33589;48.242;14.676;2023-05-29T09:47:19;25.30;43.20
47825;DHT22;33589;48.242;14.676;2023-05-29T09:49:45;25.40;42.60
47825;DHT22;33589;48.242;14.676;2023-05-29T09:52:12;25.40;42.30
47825;DHT22;33589;48.242;14.676;2023-05-29T09:54:44;25.40;42.50
47825;DHT22;33589;48.242;14.676;2023-05-29T09:57:14;25.40;42.30
47825;DHT22;33589;48.242;14.676;2023-05-29T09:59:43;25.40;42.80
47825;DHT22;33589;48.242;14.676;2023-05-29T10:02:11;25.40;42.50
47825;DHT22;33589;48.242;14.676;2023-05-29T10:04:40;25.50;42.50
47825;DHT22;33589;48.242;14.676;2023-05-29T10:07:26;25.60;42.60
47825;DHT22;33589;48.242;14.676;2023-05-29T10:09:58;25.60;42.80
47825;DHT22;33589;48.242;14.676;2023-05-29T10:12:26;25.70;42.90
47825;DHT22;33589;48.242;14.676;2023-05-29T10:14:56;25.70;42.10
47825;DHT22;33589;48.242;14.676;2023-05-29T10:17:26;25.70;42.00
47825;DHT22;33589;48.242;14.676;2023-05-29T10:19:55;25.70;41.60
47825;DHT22;33589;48.242;14.676;2023-05-29T10:22:23;25.60;42.50
47825;DHT22;33589;48.242;14.676;2023-05-29T10:24:51;25.60;42.70
47825;DHT22;33589;48.242;14.676;2023-05-29T10:27:18;25.70;42.80
47825;DHT22;33589;48.242;14.676;2023-05-29T10:29:52;25.70;42.70
47825;DHT22;33589;48.242;14.676;2023-05-29T10:32:27;25.70;43.10
47825;DHT22;33589;48.242;14.676;2023-05-29T10:35:18;25.70;42.10
47825;DHT22;33589;48.242;14.676;2023-05-29T10:37:54;25.70;42.30
47825;DHT22;33589;48.242;14.676;2023-05-29T10:40:24;25.80;42.90
47825;DHT22;33589;48.242;14.676;2023-05-29T10:42:51;25.80;42.00
47825;DHT22;33589;48.242;14.676;2023-05-29T10:50:51;25.70;42.50
47825;DHT22;33589;48.242;14.676;2023-05-29T10:53:22;25.70;42.70
47825;DHT22;33589;48.242;14.676;2023-05-29T10:55:48;25.60;43.10
47825;DHT22;33589;48.242;14.676;2023-05-29T10:58:20;25.70;43.00
47825;DHT22;33589;48.242;14.676;2023-05-29T11:00:47;25.60;43.80
47825;DHT22;33589;48.242;14.676;2023-05-29T11:03:20;25.70;43.30
47825;DHT22;33589;48.242;14.676;2023-05-29T11:06:18;25.60;43.30
47825;DHT22;33589;48.242;14.676;2023-05-29T11:11:12;25.50;41.90
47825;DHT22;33589;48.242;14.676;2023-05-29T11:13:38;25.60;41.30
47825;DHT22;33589;48.242;14.676;2023-05-29T11:18:40;25.70;41.40
47825;DHT22;33589;48.242;14.676;2023-05-29T11:21:22;25.80;42.30
47825;DHT22;33589;48.242;14.676;2023-05-29T11:23:54;25.80;41.90
47825;DHT22;33589;48.242;14.676;2023-05-29T11:26:21;25.90;42.90
47825;DHT22;33589;48.242;14.676;2023-05-29T11:28:48;25.90;42.70
47825;DHT22;33589;48.242;14.676;2023-05-29T11:31:15;25.90;42.40
47825;DHT22;33589;48.242;14.676;2023-05-29T11:33:49;25.90;41.70
47825;DHT22;33589;48.242;14.676;2023-05-29T11:36:18;26.00;41.40
47825;DHT22;33589;48.242;14.676;2023-05-29T11:38:45;25.90;41.70
47825;DHT22;33589;48.242;14.676;2023-05-29T11:41:11;25.80;42.00
47825;DHT22;33589;48.242;14.676;2023-05-29T11:43:37;25.90;41.60
47825;DHT22;33589;48.242;14.676;2023-05-29T11:46:13;25.90;41.60
47825;DHT22;33589;48.242;14.676;2023-05-29T11:48:47;25.90;42.50
47825;DHT22;33589;48.242;14.676;2023-05-29T11:51:13;25.80;42.60
47825;DHT22;33589;48.242;14.676;2023-05-29T11:53:43;25.80;43.00
47825;DHT22;33589;48.242;14.676;2023-05-29T11:56:12;25.80;42.20
47825;DHT22;33589;48.242;14.676;2023-05-29T11:58:39;25.70;42.10
47825;DHT22;33589;48.242;14.676;2023-05-29T12:01:08;25.80;42.10
47825;DHT22;33589;48.242;14.676;2023-05-29T12:03:43;25.70;42.40
47825;DHT22;33589;48.242;14.676;2023-05-29T12:06:09;25.70;41.40
47825;DHT22;33589;48.242;14.676;2023-05-29T12:08:36;25.70;42.00
47825;DHT22;33589;48.242;14.676;2023-05-29T12:11:03;25.70;42.30
47825;DHT22;33589;48.242;14.676;2023-05-29T12:13:29;25.80;42.10
47825;DHT22;33589;48.242;14.676;2023-05-29T12:15:57;25.90;41.90
47825;DHT22;33589;48.242;14.676;2023-05-29T12:18:24;25.80;41.90
47825;DHT22;33589;48.242;14.676;2023-05-29T12:20:50;25.80;42.00
47825;DHT22;33589;48.242;14.676;2023-05-29T12:23:17;25.70;42.50
47825;DHT22;33589;48.242;14.676;2023-05-29T12:25:46;25.70;41.70
47825;DHT22;33589;48.242;14.676;2023-05-29T12:28:16;25.70;42.80
47825;DHT22;33589;48.242;14.676;2023-05-29T12:30:46;25.70;42.30
47825;DHT22;33589;48.242;14.676;2023-05-29T12:33:34;25.70;42.60
47825;DHT22;33589;48.242;14.676;2023-05-29T12:36:08;25.70;41.90
47825;DHT22;33589;48.242;14.676;2023-05-29T12:38:49;25.70;41.00
47825;DHT22;33589;48.242;14.676;2023-05-29T12:43:48;25.80;36.30
47825;DHT22;33589;48.242;14.676;2023-05-29T12:46:14;25.80;36.00
47825;DHT22;33589;48.242;14.676;2023-05-29T12:48:40;25.80;39.30
47825;DHT22;33589;48.242;14.676;2023-05-29T12:51:06;25.90;39.30
47825;DHT22;33589;48.242;14.676;2023-05-29T12:53:33;25.90;40.70
47825;DHT22;33589;48.242;14.676;2023-05-29T12:55:59;26.00;41.30
47825;DHT22;33589;48.242;14.676;2023-05-29T12:58:25;26.00;40.90
47825;DHT22;33589;48.242;14.676;2023-05-29T13:00:53;26.00;41.00
47825;DHT22;33589;48.242;14.676;2023-05-29T13:03:22;26.00;38.30
47825;DHT22;33589;48.242;14.676;2023-05-29T13:05:51;26.00;37.40
47825;DHT22;33589;48.242;14.676;2023-05-29T13:08:19;26.00;37.70
47825;DHT22;33589;48.242;14.676;2023-05-29T13:10:45;26.10;37.20
47825;DHT22;33589;48.242;14.676;2023-05-29T13:13:11;26.10;37.70
47825;DHT22;33589;48.242;14.676;2023-05-29T13:15:38;26.10;36.30
47825;DHT22;33589;48.242;14.676;2023-05-29T13:18:06;26.00;36.10
47825;DHT22;33589;48.242;14.676;2023-05-29T13:20:31;25.90;36.50
47825;DHT22;33589;48.242;14.676;2023-05-29T13:22:58;26.00;36.10
47825;DHT22;33589;48.242;14.676;2023-05-29T13:25:24;26.00;35.90
47825;DHT22;33589;48.242;14.676;2023-05-29T13:27:51;26.00;36.70
47825;DHT22;33589;48.242;14.676;2023-05-29T13:30:18;26.00;36.40
47825;DHT22;33589;48.242;14.676;2023-05-29T13:32:44;26.00;35.80
47825;DHT22;33589;48.242;14.676;2023-05-29T13:35:10;26.00;36.70
47825;DHT22;33589;48.242;14.676;2023-05-29T13:37:37;26.00;37.00
47825;DHT22;33589;48.242;14.676;2023-05-29T13:40:06;26.10;37.20
47825;DHT22;33589;48.242;14.676;2023-05-29T13:42:34;26.10;36.40
47825;DHT22;33589;48.242;14.676;2023-05-29T13:45:00;26.10;36.60
47825;DHT22;33589;48.242;14.676;2023-05-29T13:47:25;26.10;36.90
47825;DHT22;33589;48.242;14.676;2023-05-29T13:49:54;26.10;36.90
47825;DHT22;33589;48.242;14.676;2023-05-29T13:52:19;26.10;37.40
47825;DHT22;33589;48.242;14.676;2023-05-29T13:54:45;26.00;37.00
47825;DHT22;33589;48.242;14.676;2023-05-29T13:57:11;26.00;37.60
47825;DHT22;33589;48.242;14.676;2023-05-29T13:59:37;26.00;37.50
47825;DHT22;33589;48.242;14.676;2023-05-29T14:02:02;26.00;38.10
47825;DHT22;33589;48.242;14.676;2023-05-29T14:04:29;26.00;38.00
47825;DHT22;33589;48.242;14.676;2023-05-29T14:06:55;26.00;37.80
47825;DHT22;33589;48.242;14.676;2023-05-29T14:09:22;26.00;37.50
47825;DHT22;33589;48.242;14.676;2023-05-29T14:11:59;26.10;37.10
47825;DHT22;33589;48.242;14.676;2023-05-29T14:14:25;26.10;37.00
47825;DHT22;33589;48.242;14.676;2023-05-29T14:16:52;26.00;36.60
47825;DHT22;33589;48.242;14.676;2023-05-29T14:19:18;26.00;37.40
47825;DHT22;33589;48.242;14.676;2023-05-29T14:21:44;25.90;37.40
47825;DHT22;33589;48.242;14.676;2023-05-29T14:24:10;26.00;37.50
47825;DHT22;33589;48.242;14.676;2023-05-29T14:26:36;25.90;37.60
47825;DHT22;33589;48.242;14.676;2023-05-29T14:29:02;26.00;38.10
47825;DHT22;33589;48.242;14.676;2023-05-29T14:31:28;26.00;38.00
47825;DHT22;33589;48.242;14.676;2023-05-29T14:33:54;26.00;38.00
47825;DHT22;33589;48.242;14.676;2023-05-29T14:36:19;26.00;37.50
47825;DHT22;33589;48.242;14.676;2023-05-29T14:38:45;26.00;37.70
47825;DHT22;33589;48.242;14.676;2023-05-29T14:41:13;26.00;37.50
47825;DHT22;33589;48.242;14.676;2023-05-29T14:43:41;26.00;37.20
47825;DHT22;33589;48.242;14.676;2023-05-29T14:46:06;26.00;37.00
47825;DHT22;33589;48.242;14.676;2023-05-29T14:48:32;26.00;37.70
47825;DHT22;33589;48.242;14.676;2023-05-29T14:50:58;26.00;37.90
47825;DHT22;33589;48.242;14.676;2023-05-29T14:53:23;25.90;37.40
47825;DHT22;33589;48.242;14.676;2023-05-29T14:55:49;25.90;37.60
47825;DHT22;33589;48.242;14.676;2023-05-29T14:58:15;25.90;37.60
47825;DHT22;33589;48.242;14.676;2023-05-29T15:00:41;25.90;37.20
47825;DHT22;33589;48.242;14.676;2023-05-29T15:03:06;25.90;36.20
47825;DHT22;33589;48.242;14.676;2023-05-29T15:05:32;25.90;36.90
47825;DHT22;33589;48.242;14.676;2023-05-29T15:07:57;25.90;36.60
47825;DHT22;33589;48.242;14.676;2023-05-29T15:10:25;25.90;36.80
47825;DHT22;33589;48.242;14.676;2023-05-29T15:12:52;25.90;36.80
47825;DHT22;33589;48.242;14.676;2023-05-29T15:15:25;25.90;36.20
47825;DHT22;33589;48.242;14.676;2023-05-29T15:17:52;25.90;36.20
47825;DHT22;33589;48.242;14.676;2023-05-29T15:20:22;25.90;35.10
47825;DHT22;33589;48.242;14.676;2023-05-29T15:22:48;25.90;35.40
47825;DHT22;33589;48.242;14.676;2023-05-29T15:25:18;25.90;36.10
47825;DHT22;33589;48.242;14.676;2023-05-29T15:27:43;25.90;36.00
47825;DHT22;33589;48.242;14.676;2023-05-29T15:32:35;25.90;35.90
47825;DHT22;33589;48.242;14.676;2023-05-29T15:35:00;25.90;35.70
47825;DHT22;33589;48.242;14.676;2023-05-29T15:37:26;25.90;35.20
47825;DHT22;33589;48.242;14.676;2023-05-29T15:39:55;25.90;35.50
47825;DHT22;33589;48.242;14.676;2023-05-29T15:42:21;25.90;35.90
47825;DHT22;33589;48.242;14.676;2023-05-29T15:44:47;25.90;36.50
47825;DHT22;33589;48.242;14.676;2023-05-29T15:47:13;25.90;35.90